Terminal Aerodrome Forecast
Issued by NWS

Home | Current Version | Previous Version | Text Only | Print | Product List | Glossary On
Versions: 1 2 3 4 5 6 7 8 9 10 11 12 13 14 15 16 17 18
000
FTUS42 KMLB 221138
TAFLEE
TAF
KLEE 221138Z 2212/2312 VRB03KT 2SM BR BKN005 BKN015
      TEMPO 2212/2214 1/2SM FG BKN002
     FM221500 35004KT P6SM SCT005 BKN015 BKN250
     FM221700 05008KT P6SM BKN050 BKN250
     FM230600 04006KT P6SM SCT015 BKN025
      TEMPO 2309/2312 BKN006 BKN015=

USA.gov is the U.S. government's official web portal to all federal, state and local government web resources and services.